• Join FlightAware (Why Join?)
  • Login
  • US Flag 
08:19PM EDT


 

Airport Tracker/Info


-or-


 

Live Flight TrackerFlight Track Log ✈ OPT330 ✈ 05-May-2014 ✈ KIAD - KSBN

Flight Track Log - Related Links

Times and Time Zones

All times are in EDT time to prevent confusion due to time zone crossing. See the OPT330 flight status page for this flight to view local times or setup timezone preferences in your user account.

Time Position Orientation Groundspeed Altitude Reporting Facility
EDT Latitude Longitude Course Direction KTS MPH feet Rate Location/Type
07:10AM 38.9331 -77.5387 249° West 233 268 4,000  Level FlightAware ADS-B (KDAA)
07:11AM 38.9281 -77.5595 255° West 235 270 5,000 3,900 Climbing FlightAware ADS-B (KDAA)
07:11AM 38.9240 -77.5795 256° West 243 280 5,900 3,180 Climbing FlightAware ADS-B (KDAA)
07:11AM 38.9193 -77.6030 255° West 256 295 6,600 1,320 Climbing FlightAware ADS-B (KDAA)
07:11AM 38.9128 -77.6314 254° West 264 304 6,700 480 Climbing FlightAware ADS-B (KDAA)
07:11AM 38.9116 -77.6366 254° West 264 304 6,800 420 Climbing FlightAware ADS-B (KDCA)
07:12AM 38.9078 -77.6532 254° West 261 300 6,800 180 Level FlightAware ADS-B (KDAA)
07:12AM 38.9024 -77.6765 254° West 259 298 6,900 480 Climbing FlightAware ADS-B (KDAA)
07:12AM 38.8997 -77.6883 254° West 260 299 7,000 360 Climbing FlightAware ADS-B (KDCA)
07:12AM 38.8974 -77.6981 254° West 255 293 7,000 1,560 Level FlightAware ADS-B (KDAA)
07:12AM 38.8917 -77.7251 259° West 240 276 7,700 2,520 Climbing FlightAware ADS-B (KDAA)
07:13AM 38.8895 -77.7455 264° West 236 272 8,400 3,840 Climbing FlightAware ADS-B (KDAA)
07:14AM 38.8983 -77.8360 284° West 219 252 13,600 3,840 Climbing FlightAware ADS-B (KDAA)
07:16AM 38.9248 -77.9946 282° West 239 275 20,500 2,820 Climbing FlightAware ADS-B (KDCA)
07:17AM 38.9394 -78.0950 282° West 238 274 22,800 1,500 Climbing Washington Center
07:18AM 38.9542 -78.1861 282° West 250 288 24,000 960 Climbing Washington Center
07:19AM 38.9664 -78.2989 278° West 286 329 24,800 1,200 Climbing Washington Center
07:20AM 38.9742 -78.4167 275° West 319 367 26,500 1,740 Climbing Washington Center
07:21AM 38.9817 -78.5344 275° West 331 381 28,400 1,980 Climbing Washington Center
07:22AM 38.9872 -78.6494 274° West 331 381 30,500 2,100 Climbing Washington Center
07:23AM 38.9947 -78.7592 275° West 331 381 32,600 2,100 Climbing Washington Center
07:24AM 39.0003 -78.8636 274° West 314 361 34,700 1,920 Climbing Washington Center
07:25AM 39.0078 -78.9681 275° West 309 356 36,600 1,680 Climbing Washington Center
07:26AM 39.0133 -79.0672 274° West 297 342 38,100 1,500 Climbing Washington Center
07:27AM 39.0186 -79.1664 274° West 292 336 39,600 1,260 Climbing Washington Center
07:28AM 39.0244 -79.2575 275° West 275 316 40,700 660 Climbing Washington Center
07:29AM 39.0317 -79.3542 276° West 270 311 41,000 120 Climbing Washington Center
07:30AM 39.0389 -79.4614 275° West 281 323 41,000  Level Washington Center
07:31AM 39.0494 -79.5850 276° West 320 368 41,000 240 Level Washington Center
07:32AM 39.0578 -79.7031 275° West 326 375 41,500 540 Climbing Washington Center
07:33AM 39.0644 -79.8156 274° West 331 381 42,200 660 Climbing Washington Center
07:34AM 39.0706 -79.9336 274° West 331 381 42,900 360 Climbing Washington Center
07:35AM 39.0789 -80.0492 275° West 331 381 43,000  Climbing Washington Center
07:36AM 39.0847 -80.1725 274° West 331 381 43,000  Level Washington Center
07:37AM 39.0842 -80.2217 269° West 345 397 43,000  Level Cleveland Center
07:38AM 39.0911 -80.3483 274° West 351 404 43,000  Level Cleveland Center
07:39AM 39.0967 -80.4639 274° West 354 407 43,000  Level Indianapolis Center
07:40AM 39.1050 -80.6172 274° West 354 407 43,000  Level Indianapolis Center
07:41AM 39.1500 -80.7275 298° West 355 409 43,000  Level Indianapolis Center
07:42AM 39.2025 -80.8364 302° West 355 409 43,000  Level Indianapolis Center
07:43AM 39.2533 -80.9417 302° West 353 406 43,000  Level Indianapolis Center
07:44AM 39.3053 -81.0500 302° West 353 406 43,000  Level Indianapolis Center
07:45AM 39.3550 -81.1539 302° West 347 399 43,000  Level Indianapolis Center
07:46AM 39.4064 -81.2603 302° West 347 399 43,000  Level Indianapolis Center
07:47AM 39.4664 -81.3853 302° West 346 398 43,000  Level Indianapolis Center
07:48AM 39.5169 -81.4908 302° West 346 398 43,000  Level Indianapolis Center
07:49AM 39.5667 -81.5953 302° West 345 397 43,000  Level Indianapolis Center
07:50AM 39.6153 -81.7000 301° West 344 396 43,000  Level Indianapolis Center
07:51AM 39.6650 -81.8042 302° West 343 395 43,000  Level Indianapolis Center
07:52AM 39.7178 -81.9158 302° West 343 395 43,000  Level Indianapolis Center
07:53AM 39.7664 -82.0211 301° West 343 395 43,000  Level Indianapolis Center
07:54AM 39.8161 -82.1258 302° West 343 395 43,000  Level Indianapolis Center
07:55AM 39.8658 -82.2322 301° West 343 395 43,000  Level Indianapolis Center
07:56AM 39.9144 -82.3378 301° West 343 395 43,000  Level Indianapolis Center
07:57AM 39.9739 -82.4644 302° West 343 395 43,000 -300 Level Indianapolis Center
07:58AM 40.0231 -82.5719 301° West 343 395 42,500 -780 Descending Indianapolis Center
07:59AM 40.0742 -82.6828 301° West 350 403 41,400 -1,080 Descending Indianapolis Center
08:00AM 40.1258 -82.7961 301° West 359 413 40,300 -1,140 Descending Indianapolis Center
08:01AM 40.1736 -82.8997 301° West 348 400 39,100 -1,320 Descending Indianapolis Center
08:02AM 40.2261 -83.0175 300° West 321 369 37,600 -1,260 Descending Indianapolis Center
08:03AM 40.2722 -83.1183 301° West 321 369 36,500 -780 Descending Indianapolis Center
08:04AM 40.3189 -83.2206 301° West 325 374 36,000 -600 Descending Indianapolis Center
08:05AM 40.3642 -83.3214 301° West 325 374 35,300 -720 Descending Indianapolis Center
08:06AM 40.4117 -83.4283 300° West 334 384 34,600 -1,320 Descending Indianapolis Center
08:07AM 40.4611 -83.5392 300° West 347 399 32,600 -1,800 Descending Indianapolis Center
08:08AM 40.5197 -83.6708 300° West 351 404 31,000 -1,140 Descending Indianapolis Center
08:09AM 40.5681 -83.7808 300° West 347 399 30,300 -840 Descending Indianapolis Center
08:11AM 40.6200 -83.9003 300° West 368 423 29,300 -960 Descending Indianapolis Center
08:12AM 40.6731 -84.0203 300° West 376 433 28,400 -1,020 Descending Indianapolis Center
08:13AM 40.7253 -84.1372 301° West 376 433 27,300 -1,140 Descending Indianapolis Center
08:14AM 40.7858 -84.2783 300° West 372 428 26,100 -480 Descending Indianapolis Center
08:20AM 41.0681 -84.9337 299° West 331 381 24,100 -360 Descending FlightAware ADS-B
08:20AM 41.1003 -85.0086 299° West 332 382 24,000 -360 Descending Cleveland Center
08:21AM 41.1439 -85.1122 299° West 325 374 23,500 -480 Descending Cleveland Center
08:23AM 41.1569 -85.2311 278° West 340 391 23,000 -300 Descending Cleveland Center
08:24AM 41.1539 -85.3803 268° West 336 387 22,900 -780 Descending Cleveland Center
08:25AM 41.2092 -85.4742 308° West 332 382 21,500 -1,740 Descending Cleveland Center
08:26AM 41.2628 -85.5697 307° West 319 367 19,400 -2,160 Descending Cleveland Center
08:27AM 41.3183 -85.6656 308° West 324 373 17,100 -2,460 Descending Cleveland Center
08:27AM 41.3550 -85.7294 307° West 322 371 15,400 -2,700 Descending Indianapolis Center
08:28AM 41.3911 -85.7942 307° West 313 360 13,600 -2,400 Descending Chicago Center
08:29AM 41.4433 -85.8847 308° West 309 356 11,300 -1,260 Descending Chicago Center
08:30AM 41.4931 -85.9728 307° West 301 346 11,000 -780 Descending Chicago Center
08:31AM 41.5242 -86.0675 294° West 278 320 9,800 -1,500 Descending Chicago Center
08:32AM 41.5425 -86.1642 284° West 269 310 7,900 -1,920 Descending Chicago Center
08:33AM 41.5608 -86.2569 285° West 263 303 5,900 -1,800 Descending Chicago Center
08:34AM 41.5861 -86.3436 291° West 256 295 4,200 -1,560 Descending Chicago Center
08:35AM 41.6500 -86.3847 334° Northwest 232 267 2,700 -1,200 Descending Chicago Center
08:36AM 41.6942 -86.3769 North 189 217 1,700 -720 Descending Chicago Center
08:37AM 41.7089 -86.3472 56° Northeast 165 190 1,300 -420 Descending Chicago Center